Time;durP1;ratioP1;P1;durP2;ratioP2;P2;SDS_P1;SDS_P2;PMS_P1;PMS_P2;Temp;Humidity;BMP_temperature;BMP_pressure;BME280_temperature;BME280_humidity;BME280_pressure;Samples;Min_cycle;Max_cycle;Signal;HPM_P1;HPM_P2
2024/01/14 00:00:18;;;;;;;115.30;34.27;;;;;;;1.21;100.00;101252.28;5073596;28;20569;-70
2024/01/14 00:02:45;;;;;;;130.97;35.13;;;;;;;1.27;100.00;101245.88;5074093;28;20182;-70
2024/01/14 00:05:11;;;;;;;109.67;34.23;;;;;;;1.22;100.00;101245.25;5073742;28;20185;-70
2024/01/14 00:07:39;;;;;;;136.57;37.00;;;;;;;1.22;100.00;101240.84;5073543;28;20212;-70
2024/01/14 00:10:06;;;;;;;109.73;34.13;;;;;;;1.23;100.00;101241.69;5074019;28;20179;-70
2024/01/14 00:12:33;;;;;;;139.97;35.97;;;;;;;1.24;100.00;101238.97;5073970;28;20646;-70
2024/01/14 00:15:00;;;;;;;119.47;35.23;;;;;;;1.24;100.00;101230.19;5073876;28;20566;-70
2024/01/14 00:17:27;;;;;;;116.83;33.57;;;;;;;1.31;100.00;101239.50;5073276;28;20285;-70
2024/01/14 00:19:59;;;;;;;123.60;33.27;;;;;;;1.24;100.00;101235.47;5073427;28;20592;-70
2024/01/14 00:22:26;;;;;;;116.20;31.80;;;;;;;1.26;100.00;101245.00;5073330;28;20189;-70
2024/01/14 00:24:52;;;;;;;135.97;36.83;;;;;;;1.23;100.00;101234.63;5072653;28;20189;-70
2024/01/14 00:27:19;;;;;;;118.50;37.03;;;;;;;1.28;100.00;101237.88;5073178;28;20569;-70
2024/01/14 00:29:45;;;;;;;122.03;36.13;;;;;;;1.29;100.00;101233.47;5073221;28;20183;-70
2024/01/14 00:32:12;;;;;;;115.87;35.33;;;;;;;1.18;100.00;101215.59;5073240;28;20256;-70
2024/01/14 00:34:42;;;;;;;132.50;34.47;;;;;;;1.21;100.00;101217.22;5073632;28;20216;-70
2024/01/14 00:37:10;;;;;;;108.77;34.07;;;;;;;1.20;100.00;101220.75;5073733;28;20239;-70
2024/01/14 00:39:37;;;;;;;134.40;37.57;;;;;;;1.23;100.00;101221.44;5073371;28;20557;-70
2024/01/14 00:42:05;;;;;;;134.67;36.80;;;;;;;1.24;100.00;101220.53;5073062;28;20195;-70
2024/01/14 00:44:32;;;;;;;128.83;36.67;;;;;;;1.24;100.00;101215.25;5073288;28;20190;-70
2024/01/14 00:46:58;;;;;;;124.23;32.73;;;;;;;1.24;100.00;101212.63;5073618;28;20549;-70
2024/01/14 00:49:25;;;;;;;132.80;35.90;;;;;;;1.25;100.00;101206.44;5072966;28;20236;-70
2024/01/14 00:51:51;;;;;;;133.37;36.77;;;;;;;1.22;100.00;101208.38;5073307;28;20186;-70
2024/01/14 00:54:18;;;;;;;131.30;35.90;;;;;;;1.25;100.00;101195.03;5073510;28;20594;-70
2024/01/14 00:56:44;;;;;;;109.97;34.93;;;;;;;1.25;100.00;101197.69;5073266;28;20530;-70
2024/01/14 00:59:11;;;;;;;123.23;36.93;;;;;;;1.18;100.00;101197.16;5073172;28;20210;-70
2024/01/14 01:01:37;;;;;;;114.03;34.77;;;;;;;1.17;100.00;101192.81;5072953;28;20641;-70
2024/01/14 01:04:04;;;;;;;126.47;36.43;;;;;;;1.25;100.00;101197.69;5072907;28;20553;-70
2024/01/14 01:06:30;;;;;;;115.20;36.40;;;;;;;1.23;100.00;101192.47;5072908;28;20193;-70
2024/01/14 01:08:57;;;;;;;119.60;36.50;;;;;;;1.26;100.00;101192.34;5072793;28;20297;-70
2024/01/14 01:11:24;;;;;;;102.57;30.87;;;;;;;1.20;100.00;101187.38;5072859;28;20661;-70
2024/01/14 01:13:50;;;;;;;112.17;31.83;;;;;;;1.22;100.00;101182.06;5072805;28;20198;-70
2024/01/14 01:16:17;;;;;;;123.97;32.03;;;;;;;1.22;100.00;101176.78;5072765;28;20606;-70
2024/01/14 01:18:43;;;;;;;106.67;33.63;;;;;;;1.26;100.00;101173.06;5072629;28;20558;-70
2024/01/14 01:21:10;;;;;;;108.47;32.27;;;;;;;1.23;100.00;101178.50;5072893;28;20195;-70
2024/01/14 01:23:37;;;;;;;106.67;32.57;;;;;;;1.28;100.00;101176.44;5071572;28;20187;-70
2024/01/14 01:26:03;;;;;;;100.30;31.23;;;;;;;1.21;100.00;101177.72;5072694;28;20244;-70
2024/01/14 01:28:30;;;;;;;116.33;30.90;;;;;;;1.24;100.00;101178.38;5072953;28;20209;-70
2024/01/14 01:30:56;;;;;;;114.83;32.47;;;;;;;1.23;100.00;101184.59;5072662;28;20190;-70
2024/01/14 01:33:23;;;;;;;101.30;30.57;;;;;;;1.22;100.00;101182.06;5072629;28;20274;-70
2024/01/14 01:35:49;;;;;;;104.53;32.27;;;;;;;1.19;100.00;101175.16;5074553;28;20206;-70
2024/01/14 01:38:16;;;;;;;91.70;30.13;;;;;;;1.21;100.00;101173.28;5076223;28;20697;-70
2024/01/14 01:40:43;;;;;;;96.23;30.40;;;;;;;1.17;100.00;101178.81;5076247;28;20187;-70
2024/01/14 01:43:09;;;;;;;104.83;30.30;;;;;;;1.21;100.00;101172.44;5076761;28;20198;-70
2024/01/14 01:45:35;;;;;;;103.83;30.03;;;;;;;1.23;100.00;101166.16;5076410;28;20187;-70
2024/01/14 01:48:04;;;;;;;88.77;29.53;;;;;;;1.21;100.00;101168.03;5076068;28;20213;-70
2024/01/14 01:50:34;;;;;;;88.17;29.50;;;;;;;1.26;100.00;101157.25;5076055;28;20244;-70
2024/01/14 01:53:01;;;;;;;91.53;29.17;;;;;;;1.28;100.00;101160.63;5076069;28;20194;-70
2024/01/14 01:55:28;;;;;;;87.83;28.23;;;;;;;1.28;100.00;101143.06;5076474;28;20256;-70
2024/01/14 01:57:55;;;;;;;89.03;29.63;;;;;;;1.26;100.00;101151.97;5075905;28;20256;-71
2024/01/14 02:00:22;;;;;;;97.03;31.47;;;;;;;1.26;100.00;101138.81;5076170;28;20182;-70
2024/01/14 02:02:49;;;;;;;84.27;29.07;;;;;;;1.27;100.00;101141.34;5075855;28;20256;-70
2024/01/14 02:05:18;;;;;;;102.67;31.63;;;;;;;1.25;100.00;101143.22;5076062;28;20178;-70
2024/01/14 02:07:45;;;;;;;100.77;32.03;;;;;;;1.26;100.00;101134.41;5075711;28;20608;-70
2024/01/14 02:10:11;;;;;;;108.10;30.90;;;;;;;1.21;100.00;101135.56;5075737;28;20191;-70
2024/01/14 02:12:38;;;;;;;95.37;31.13;;;;;;;1.23;100.00;101141.63;5075674;28;20282;-70
2024/01/14 02:15:05;;;;;;;113.33;33.30;;;;;;;1.21;100.00;101130.31;5075752;28;20674;-70
2024/01/14 02:17:31;;;;;;;103.77;30.93;;;;;;;1.20;100.00;101123.34;5075526;28;20234;-71
2024/01/14 02:19:58;;;;;;;109.47;30.20;;;;;;;1.22;100.00;101119.69;5075698;28;20204;-71
2024/01/14 02:22:28;;;;;;;117.50;33.70;;;;;;;1.16;100.00;101127.06;5075503;28;20187;-71
2024/01/14 02:24:55;;;;;;;104.80;31.40;;;;;;;1.15;100.00;101133.25;5075658;28;20191;-70
2024/01/14 02:27:22;;;;;;;109.33;30.10;;;;;;;1.18;100.00;101123.44;5075311;28;20193;-71
2024/01/14 02:29:51;;;;;;;94.93;27.63;;;;;;;1.20;100.00;101121.56;5075604;28;20222;-71
2024/01/14 02:32:17;;;;;;;89.07;26.60;;;;;;;1.11;100.00;101118.56;5075585;28;20225;-71
2024/01/14 02:34:44;;;;;;;103.67;28.60;;;;;;;1.10;100.00;101117.72;5075214;28;20554;-70
2024/01/14 02:37:10;;;;;;;88.87;27.07;;;;;;;1.14;100.00;101110.50;5075252;28;20201;-70
2024/01/14 02:39:37;;;;;;;90.47;29.57;;;;;;;1.21;100.00;101106.59;5075490;28;20206;-71
2024/01/14 02:42:03;;;;;;;91.50;29.97;;;;;;;1.08;100.00;101105.56;5075150;28;20218;-71
2024/01/14 02:44:30;;;;;;;107.33;33.37;;;;;;;1.03;100.00;101097.91;5075640;28;20758;-70
2024/01/14 02:46:57;;;;;;;110.90;32.80;;;;;;;0.99;100.00;101101.63;5074506;28;20183;-70
2024/01/14 02:49:23;;;;;;;108.27;32.83;;;;;;;1.03;100.00;101099.69;5075463;28;20685;-71
2024/01/14 02:51:50;;;;;;;107.33;31.57;;;;;;;1.04;100.00;101098.75;5075490;28;20182;-71
2024/01/14 02:54:16;;;;;;;105.17;33.30;;;;;;;1.13;100.00;101096.50;5074926;28;20178;-71
2024/01/14 02:56:43;;;;;;;115.67;33.33;;;;;;;1.02;100.00;101096.19;5075085;28;20198;-71
2024/01/14 02:59:09;;;;;;;116.47;34.60;;;;;;;1.04;100.00;101109.28;5074742;28;20226;-71
2024/01/14 03:01:48;;;;;;;135.50;34.90;;;;;;;0.98;100.00;101097.28;5075328;28;20190;-71
2024/01/14 03:04:15;;;;;;;101.73;31.63;;;;;;;1.02;100.00;101092.75;5074994;28;20224;-71
2024/01/14 03:06:42;;;;;;;124.27;34.70;;;;;;;1.05;100.00;101089.94;5075155;28;20570;-71
2024/01/14 03:09:09;;;;;;;111.40;34.63;;;;;;;1.04;100.00;101080.34;5074773;28;20546;-71
2024/01/14 03:11:35;;;;;;;121.53;34.80;;;;;;;1.07;100.00;101078.38;5075042;28;20191;-71
2024/01/14 03:14:02;;;;;;;120.60;36.30;;;;;;;1.04;100.00;101073.28;5074987;28;20190;-71
2024/01/14 03:16:29;;;;;;;154.63;35.17;;;;;;;1.13;100.00;101071.94;5074384;28;20202;-71
2024/01/14 03:18:55;;;;;;;131.00;34.87;;;;;;;1.17;100.00;101068.22;5074266;28;20202;-71
2024/01/14 03:21:22;;;;;;;129.47;36.00;;;;;;;1.17;100.00;101074.34;5074921;28;20186;-71
2024/01/14 03:23:49;;;;;;;115.80;34.37;;;;;;;1.17;100.00;101070.84;5074286;28;20194;-71
2024/01/14 03:26:15;;;;;;;122.70;34.33;;;;;;;1.19;100.00;101069.81;5074281;28;20197;-71
2024/01/14 03:28:42;;;;;;;115.20;33.07;;;;;;;1.17;100.00;101070.84;5074638;28;20210;-71
2024/01/14 03:31:13;;;;;;;112.80;34.57;;;;;;;1.22;100.00;101067.03;5074156;28;20244;-71
2024/01/14 03:33:42;;;;;;;123.63;35.20;;;;;;;1.21;100.00;101061.84;5074712;28;20186;-70
2024/01/14 03:36:12;;;;;;;115.43;33.23;;;;;;;1.24;100.00;101059.03;5074268;28;20263;-70
2024/01/14 03:38:39;;;;;;;132.93;35.33;;;;;;;1.21;100.00;101057.44;5074477;28;20301;-71
2024/01/14 03:41:05;;;;;;;144.93;34.97;;;;;;;1.27;100.00;101056.25;5074530;28;20195;-71
2024/01/14 03:43:32;;;;;;;123.57;34.67;;;;;;;1.26;100.00;101054.53;5073928;28;20244;-71
2024/01/14 03:45:58;;;;;;;107.27;35.13;;;;;;;1.21;100.00;101056.56;5074432;28;20270;-71
2024/01/14 03:48:25;;;;;;;123.13;35.67;;;;;;;1.26;100.00;101038.75;5073775;28;20227;-71
2024/01/14 03:50:51;;;;;;;118.83;33.77;;;;;;;1.24;100.00;101040.59;5073806;28;20539;-71
2024/01/14 03:53:18;;;;;;;117.40;33.07;;;;;;;1.19;100.00;101048.75;5073970;28;20197;-71
2024/01/14 03:55:47;;;;;;;114.60;31.87;;;;;;;1.18;100.00;101038.31;5074183;28;20202;-71
2024/01/14 03:58:14;;;;;;;96.37;30.50;;;;;;;1.25;100.00;101044.94;5073756;28;20217;-71
2024/01/14 04:00:41;;;;;;;96.33;30.73;;;;;;;1.11;100.00;101035.16;5073213;28;20190;-71
2024/01/14 04:03:08;;;;;;;92.00;29.07;;;;;;;1.17;100.00;101036.63;5073630;28;20244;-71
2024/01/14 04:05:34;;;;;;;102.23;31.13;;;;;;;1.14;100.00;101032.38;5073571;28;20183;-71
2024/01/14 04:08:01;;;;;;;100.33;30.87;;;;;;;1.11;100.00;101032.53;5073675;28;20210;-71
2024/01/14 04:10:27;;;;;;;105.50;31.63;;;;;;;1.13;100.00;101041.19;5074042;28;20571;-71
2024/01/14 04:12:54;;;;;;;101.07;30.63;;;;;;;1.10;100.00;101033.47;5073444;28;20194;-71
2024/01/14 04:15:22;;;;;;;112.73;31.60;;;;;;;1.12;100.00;101043.91;5073346;28;20681;-71
2024/01/14 04:17:49;;;;;;;102.33;31.53;;;;;;;1.15;100.00;101028.78;5073598;28;20198;-71
2024/01/14 04:20:15;;;;;;;114.00;33.27;;;;;;;1.10;100.00;101032.63;5073209;28;20201;-71
2024/01/14 04:22:42;;;;;;;103.47;30.60;;;;;;;1.16;100.00;101038.41;5073313;28;20615;-71
2024/01/14 04:25:08;;;;;;;109.27;31.67;;;;;;;1.18;100.00;101031.28;5073319;28;20190;-71
2024/01/14 04:27:37;;;;;;;121.30;33.30;;;;;;;1.16;100.00;101011.22;5073702;28;20202;-71
2024/01/14 04:30:05;;;;;;;116.80;33.03;;;;;;;1.16;100.00;101011.22;5073532;28;20658;-71
2024/01/14 04:32:31;;;;;;;122.23;34.97;;;;;;;1.02;100.00;101011.16;5073498;28;20190;-71
2024/01/14 04:34:58;;;;;;;127.03;34.20;;;;;;;1.07;100.00;101009.09;5073109;28;20218;-71
2024/01/14 04:37:25;;;;;;;136.67;34.67;;;;;;;1.09;100.00;101009.88;5073921;28;20182;-71
2024/01/14 04:39:52;;;;;;;126.90;36.00;;;;;;;1.11;100.00;101006.19;5073154;28;20196;-71
2024/01/14 04:42:18;;;;;;;143.23;36.93;;;;;;;1.18;100.00;101006.72;5072777;28;20265;-71
2024/01/14 04:44:45;;;;;;;137.43;36.80;;;;;;;1.16;100.00;101003.31;5073333;28;20179;-71
2024/01/14 04:47:11;;;;;;;142.20;37.60;;;;;;;1.18;100.00;101002.31;5073024;28;20179;-71
2024/01/14 04:49:38;;;;;;;122.57;36.03;;;;;;;1.23;100.00;100996.78;5073405;28;20277;-71
2024/01/14 04:52:05;;;;;;;139.20;37.27;;;;;;;1.19;100.00;100993.44;5073340;28;20256;-71
2024/01/14 04:54:31;;;;;;;126.70;35.57;;;;;;;1.26;100.00;101001.88;5073297;28;20244;-71
2024/01/14 04:56:58;;;;;;;127.83;35.70;;;;;;;1.25;100.00;100992.28;5073483;28;20203;-71
2024/01/14 04:59:24;;;;;;;124.23;35.37;;;;;;;1.23;100.00;100988.88;5072951;28;20603;-71
2024/01/14 05:01:51;;;;;;;134.60;35.47;;;;;;;1.26;100.00;100981.66;5073490;28;20190;-71
2024/01/14 05:04:17;;;;;;;115.73;36.43;;;;;;;1.27;100.00;100987.78;5073243;28;20175;-70
2024/01/14 05:06:44;;;;;;;109.00;33.60;;;;;;;1.21;100.00;100983.69;5073221;28;20175;-71
2024/01/14 05:09:10;;;;;;;122.70;35.07;;;;;;;1.27;100.00;100985.16;5073169;28;20206;-71
2024/01/14 05:11:37;;;;;;;131.93;36.33;;;;;;;1.23;100.00;100994.16;5076007;28;20220;-70
2024/01/14 05:14:03;;;;;;;113.93;32.03;;;;;;;1.26;100.00;100979.03;5076788;28;20199;-70
2024/01/14 05:16:30;;;;;;;132.43;35.40;;;;;;;1.25;100.00;100984.38;5077317;28;20244;-71
2024/01/14 05:18:56;;;;;;;120.40;34.03;;;;;;;1.22;100.00;100987.19;5076552;28;20209;-71
2024/01/14 05:21:23;;;;;;;136.20;35.63;;;;;;;1.15;100.00;100978.75;5076990;28;20182;-70
2024/01/14 05:23:50;;;;;;;112.13;31.70;;;;;;;1.25;100.00;100979.09;5076620;28;20249;-70
2024/01/14 05:26:17;;;;;;;126.80;37.13;;;;;;;1.21;100.00;100980.22;5077150;28;20178;-70
2024/01/14 05:28:43;;;;;;;118.80;34.17;;;;;;;1.25;100.00;100974.69;5076667;28;20288;-70
2024/01/14 05:31:10;;;;;;;119.43;34.87;;;;;;;1.21;100.00;100981.06;5076757;28;20658;-70
2024/01/14 05:33:37;;;;;;;105.23;31.37;;;;;;;1.16;100.00;100977.84;5076468;28;20240;-70
2024/01/14 05:36:04;;;;;;;124.47;34.63;;;;;;;1.18;100.00;100980.41;5076280;28;20566;-70
2024/01/14 05:38:30;;;;;;;128.13;35.30;;;;;;;1.24;100.00;100975.63;5076729;28;20214;-71
2024/01/14 05:40:56;;;;;;;126.87;35.67;;;;;;;1.22;100.00;100979.28;5076869;28;20189;-71
2024/01/14 05:43:23;;;;;;;130.13;35.83;;;;;;;1.20;100.00;100971.47;5076201;28;20259;-71
2024/01/14 05:45:49;;;;;;;116.10;34.00;;;;;;;1.22;100.00;100966.13;5076486;28;20193;-70
2024/01/14 05:48:18;;;;;;;119.90;34.63;;;;;;;1.16;100.00;100975.19;5076380;28;20211;-71
2024/01/14 05:50:49;;;;;;;123.40;33.63;;;;;;;1.16;100.00;100976.97;5076813;28;20642;-71
2024/01/14 05:53:16;;;;;;;116.27;33.97;;;;;;;1.16;100.00;100974.34;5076380;28;20191;-70
2024/01/14 05:55:42;;;;;;;117.20;34.00;;;;;;;1.11;100.00;100973.75;5076634;28;20209;-70
2024/01/14 05:58:09;;;;;;;125.90;35.40;;;;;;;1.10;100.00;100969.44;5076748;28;20595;-70
2024/01/14 06:00:35;;;;;;;120.77;33.97;;;;;;;1.18;100.00;100962.81;5076285;28;20182;-70
2024/01/14 06:03:02;;;;;;;126.53;34.13;;;;;;;1.15;100.00;100970.00;5076731;28;20290;-70
2024/01/14 06:05:28;;;;;;;129.37;35.77;;;;;;;1.12;100.00;100957.88;5076584;28;20192;-70
2024/01/14 06:07:55;;;;;;;126.20;34.70;;;;;;;1.16;100.00;100954.13;5075836;28;20206;-70
2024/01/14 06:10:21;;;;;;;120.43;33.50;;;;;;;1.15;100.00;100962.97;5076304;28;20200;-70
2024/01/14 06:12:48;;;;;;;134.47;36.10;;;;;;;1.12;100.00;100955.25;5076667;28;20588;-70
2024/01/14 06:15:14;;;;;;;119.97;35.63;;;;;;;1.14;100.00;100947.28;5075766;28;20187;-70
2024/01/14 06:17:41;;;;;;;123.87;34.97;;;;;;;1.14;100.00;100952.53;5076065;28;20210;-70
2024/01/14 06:20:09;;;;;;;114.73;34.07;;;;;;;1.11;100.00;100956.19;5075759;28;20201;-70
2024/01/14 06:22:36;;;;;;;122.67;33.63;;;;;;;1.13;100.00;100950.84;5075779;28;20182;-70
2024/01/14 06:25:03;;;;;;;111.63;32.20;;;;;;;1.15;100.00;100941.06;5075516;28;20557;-70
2024/01/14 06:27:30;;;;;;;125.03;31.40;;;;;;;1.14;100.00;100937.59;5075602;28;20182;-70
2024/01/14 06:29:56;;;;;;;120.73;31.80;;;;;;;1.14;99.71;100939.38;5075719;28;20243;-70
2024/01/14 06:32:23;;;;;;;107.83;31.13;;;;;;;1.08;99.98;100937.94;5074193;28;20568;-70
2024/01/14 06:34:49;;;;;;;110.50;31.67;;;;;;;1.12;99.76;100942.09;5075925;28;20190;-70
2024/01/14 06:37:16;;;;;;;105.87;30.60;;;;;;;1.06;99.65;100933.69;5075197;28;20581;-71
2024/01/14 06:39:42;;;;;;;105.17;31.10;;;;;;;1.05;99.73;100938.09;5075242;28;20668;-70
2024/01/14 06:42:10;;;;;;;106.80;32.17;;;;;;;1.04;100.00;100935.56;5075235;28;20182;-71
2024/01/14 06:44:40;;;;;;;123.40;34.17;;;;;;;1.00;99.96;100924.34;5075441;28;20216;-71
2024/01/14 06:47:06;;;;;;;108.33;32.07;;;;;;;1.04;100.00;100928.50;5075468;28;20210;-70
2024/01/14 06:49:33;;;;;;;107.13;31.37;;;;;;;0.98;100.00;100920.94;5075174;28;20206;-70
2024/01/14 06:52:00;;;;;;;111.67;32.20;;;;;;;0.98;100.00;100909.59;5075143;28;20596;-70
2024/01/14 06:54:26;;;;;;;113.43;32.13;;;;;;;1.04;100.00;100914.50;5075151;28;20194;-70
2024/01/14 06:56:53;;;;;;;112.93;32.73;;;;;;;1.01;99.91;100909.41;5075584;28;20210;-70
2024/01/14 06:59:23;;;;;;;119.70;32.90;;;;;;;1.10;99.93;100911.53;5075596;28;20211;-70
2024/01/14 07:01:49;;;;;;;123.17;35.10;;;;;;;1.04;100.00;100912.72;5073646;28;20190;-70
2024/01/14 07:04:16;;;;;;;119.93;35.07;;;;;;;1.10;99.90;100908.91;5075137;28;20240;-70
2024/01/14 07:06:43;;;;;;;113.67;32.47;;;;;;;1.09;99.88;100913.31;5074777;28;20183;-70
2024/01/14 07:09:11;;;;;;;120.00;33.10;;;;;;;1.08;99.98;100894.94;5074602;28;20207;-70
2024/01/14 07:11:38;;;;;;;116.07;31.60;;;;;;;1.08;100.00;100894.94;5074915;28;20680;-70
2024/01/14 07:14:04;;;;;;;118.63;32.53;;;;;;;1.01;99.92;100894.47;5074756;28;20191;-70
2024/01/14 07:16:31;;;;;;;114.30;33.87;;;;;;;1.05;99.80;100896.00;5074559;28;20202;-70
2024/01/14 07:18:57;;;;;;;120.40;32.37;;;;;;;1.05;99.69;100889.88;5074418;28;20690;-70
2024/01/14 07:21:24;;;;;;;105.50;31.27;;;;;;;1.05;99.80;100890.72;5074551;28;20485;-70
2024/01/14 07:23:51;;;;;;;106.00;31.20;;;;;;;1.09;100.00;100891.41;5074438;28;20248;-70
2024/01/14 07:26:18;;;;;;;100.47;31.40;;;;;;;1.05;99.66;100889.88;5074231;28;20648;-70
2024/01/14 07:28:52;;;;;;;126.50;31.07;;;;;;;1.10;99.51;100895.72;5074657;28;20206;-70
2024/01/14 07:31:21;;;;;;;101.13;30.80;;;;;;;1.11;99.01;100902.66;5074703;28;20183;-70
2024/01/14 07:33:50;;;;;;;109.87;31.77;;;;;;;1.06;99.37;100891.56;5074023;28;20207;-70
2024/01/14 07:36:17;;;;;;;93.17;30.47;;;;;;;0.96;99.36;100896.50;5074455;28;20232;-70
2024/01/14 07:38:44;;;;;;;90.80;29.43;;;;;;;0.89;99.16;100895.97;5073841;28;20624;-71
2024/01/14 07:41:15;;;;;;;89.87;28.87;;;;;;;0.88;99.30;100898.72;5074165;28;20190;-71
2024/01/14 07:43:43;;;;;;;93.43;29.27;;;;;;;0.86;99.63;100896.16;5074188;28;20613;-71
2024/01/14 07:46:10;;;;;;;90.37;28.80;;;;;;;0.89;99.82;100889.91;5074068;28;20183;-71
2024/01/14 07:48:37;;;;;;;103.47;30.40;;;;;;;0.92;99.57;100894.97;5074016;28;20213;-71
2024/01/14 07:51:04;;;;;;;82.70;28.37;;;;;;;0.94;99.91;100901.00;5073731;28;20739;-71
2024/01/14 07:53:31;;;;;;;105.40;29.90;;;;;;;0.89;99.76;100892.53;5074084;28;20236;-71
2024/01/14 07:55:57;;;;;;;95.40;29.23;;;;;;;0.97;100.00;100907.88;5073563;28;20646;-71
2024/01/14 07:58:24;;;;;;;102.87;29.40;;;;;;;1.00;99.78;100900.66;5073540;28;20217;-71
2024/01/14 08:00:51;;;;;;;98.63;29.73;;;;;;;1.01;99.99;100898.88;5072911;28;20186;-71
2024/01/14 08:03:28;;;;;;;109.83;30.43;;;;;;;0.98;99.88;100899.88;5073807;28;20252;-71
2024/01/14 08:05:55;;;;;;;107.20;29.77;;;;;;;1.04;99.58;100893.44;5073713;28;20229;-71
2024/01/14 08:08:23;;;;;;;89.60;29.40;;;;;;;1.09;99.57;100891.41;5073646;28;20280;-71
2024/01/14 08:10:50;;;;;;;94.00;28.60;;;;;;;1.07;99.48;100894.09;5073445;28;20190;-71
2024/01/14 08:13:16;;;;;;;98.60;31.43;;;;;;;1.12;99.67;100893.84;5073649;28;20186;-71
2024/01/14 08:15:43;;;;;;;98.20;28.80;;;;;;;1.10;99.05;100888.69;5073387;28;20193;-71
2024/01/14 08:18:26;;;;;;;105.00;30.93;;;;;;;1.02;99.26;100890.88;5073351;28;20206;-71
2024/01/14 08:20:53;;;;;;;100.87;29.10;;;;;;;1.00;99.59;100889.28;5073262;28;20280;-71
2024/01/14 08:23:19;;;;;;;96.30;31.67;;;;;;;0.98;99.93;100883.28;5073322;28;20190;-71
2024/01/14 08:25:46;;;;;;;103.77;29.43;;;;;;;1.02;99.56;100890.06;5073764;28;20183;-71
2024/01/14 08:28:13;;;;;;;88.13;30.67;;;;;;;1.02;99.52;100888.25;5073181;28;20627;-71
2024/01/14 08:30:40;;;;;;;92.60;26.90;;;;;;;1.04;99.46;100886.38;5073257;28;20304;-71
2024/01/14 08:33:06;;;;;;;98.60;27.83;;;;;;;1.04;99.49;100890.81;5073504;28;20590;-71
2024/01/14 08:35:33;;;;;;;86.43;27.77;;;;;;;1.06;99.56;100894.22;5073364;28;20190;-71
2024/01/14 08:37:59;;;;;;;88.43;27.67;;;;;;;1.06;99.45;100884.50;5073009;28;20214;-71
2024/01/14 08:40:26;;;;;;;93.67;29.63;;;;;;;1.05;99.33;100895.13;5073388;28;20587;-71
2024/01/14 08:42:53;;;;;;;84.47;28.47;;;;;;;1.12;99.31;100880.69;5073054;28;20198;-71
2024/01/14 08:45:19;;;;;;;93.67;26.80;;;;;;;1.07;99.25;100880.94;5073085;28;20549;-71
2024/01/14 08:47:46;;;;;;;99.00;28.47;;;;;;;1.06;99.12;100875.78;5072966;28;20213;-71
2024/01/14 08:50:12;;;;;;;91.13;29.63;;;;;;;1.02;99.05;100879.53;5073410;28;20186;-71
2024/01/14 08:52:39;;;;;;;96.60;29.50;;;;;;;1.01;99.32;100876.03;5073518;28;20179;-71
2024/01/14 08:55:08;;;;;;;92.97;27.37;;;;;;;1.07;99.12;100882.72;5072946;28;20228;-71
2024/01/14 08:57:35;;;;;;;89.40;29.30;;;;;;;1.01;99.16;100883.94;5073668;28;20216;-71
2024/01/14 09:00:02;;;;;;;102.00;28.50;;;;;;;1.02;99.40;100877.72;5073723;28;20553;-71
2024/01/14 09:02:28;;;;;;;89.27;28.13;;;;;;;1.03;99.39;100875.94;5072920;28;20616;-72
2024/01/14 09:04:58;;;;;;;102.07;27.63;;;;;;;1.00;99.02;100881.38;5073400;28;20175;-72
2024/01/14 09:07:26;;;;;;;99.73;30.13;;;;;;;0.97;99.78;100873.66;5073133;28;20220;-73
2024/01/14 09:09:52;;;;;;;106.73;28.67;;;;;;;1.06;99.63;100875.78;5073375;28;20533;-72
2024/01/14 09:12:19;;;;;;;91.17;28.07;;;;;;;1.05;99.26;100869.66;5072838;28;20190;-72
2024/01/14 09:14:45;;;;;;;91.13;27.93;;;;;;;1.00;99.41;100866.44;5072832;28;20187;-70
2024/01/14 09:17:12;;;;;;;84.43;29.17;;;;;;;0.98;99.43;100867.47;5072623;28;20198;-71
2024/01/14 09:19:39;;;;;;;88.20;27.97;;;;;;;1.01;98.88;100870.78;5072912;28;20207;-70
2024/01/14 09:22:05;;;;;;;88.10;27.03;;;;;;;1.00;99.02;100865.59;5072682;28;20194;-70
2024/01/14 09:24:32;;;;;;;84.23;27.40;;;;;;;0.99;98.78;100866.50;5073485;28;20191;-70
2024/01/14 09:26:59;;;;;;;76.80;25.60;;;;;;;1.00;98.58;100870.84;5073495;28;20228;-70
2024/01/14 09:29:25;;;;;;;78.93;25.67;;;;;;;0.90;99.11;100871.38;5072588;28;20241;-70
2024/01/14 09:31:52;;;;;;;73.00;23.10;;;;;;;0.90;98.76;100875.78;5072872;28;20650;-70
2024/01/14 09:34:18;;;;;;;78.53;24.03;;;;;;;1.00;98.80;100870.84;5072809;28;20187;-70
2024/01/14 09:36:45;;;;;;;64.97;24.43;;;;;;;0.98;98.52;100873.56;5072799;28;20203;-70
2024/01/14 09:39:12;;;;;;;72.60;24.57;;;;;;;1.01;98.06;100877.81;5072734;28;20203;-70
2024/01/14 09:41:49;;;;;;;79.57;26.97;;;;;;;0.93;98.21;100873.81;5072801;28;20167;-70
2024/01/14 09:44:16;;;;;;;83.67;27.07;;;;;;;0.90;98.75;100871.38;5072776;28;20185;-70
2024/01/14 09:46:44;;;;;;;76.07;26.00;;;;;;;0.93;98.47;100865.91;5072760;28;20175;-70
2024/01/14 09:49:12;;;;;;;77.87;26.93;;;;;;;0.98;98.42;100856.94;5072946;28;20217;-70
2024/01/14 09:51:45;;;;;;;78.90;25.97;;;;;;;0.95;98.65;100865.84;5073006;28;20262;-70
2024/01/14 09:54:12;;;;;;;79.30;26.93;;;;;;;0.99;98.03;100869.16;5072444;28;20629;-70
2024/01/14 09:56:41;;;;;;;78.87;24.43;;;;;;;0.97;98.24;100866.63;5072621;28;20198;-70
2024/01/14 09:59:09;;;;;;;76.77;25.20;;;;;;;0.89;98.30;100863.59;5076122;28;20206;-70
2024/01/14 10:01:39;;;;;;;75.90;25.43;;;;;;;0.93;98.59;100873.00;5075822;28;20190;-70
2024/01/14 10:04:06;;;;;;;71.70;25.03;;;;;;;0.98;98.79;100865.66;5076947;28;20566;-70
2024/01/14 10:06:32;;;;;;;86.93;25.50;;;;;;;0.89;98.44;100867.03;5076373;28;20179;-70
2024/01/14 10:08:59;;;;;;;78.43;26.20;;;;;;;0.93;98.32;100859.00;5075792;28;20206;-70
2024/01/14 10:11:27;;;;;;;79.90;25.13;;;;;;;0.93;98.71;100865.09;5075980;28;20194;-70
2024/01/14 10:13:53;;;;;;;73.80;23.87;;;;;;;0.99;98.31;100856.84;5075923;28;20179;-70
2024/01/14 10:16:21;;;;;;;64.83;23.23;;;;;;;0.93;98.03;100852.75;5076090;28;20194;-70
2024/01/14 10:19:08;;;;;;;63.70;23.50;;;;;;;0.93;98.15;100852.75;5075733;28;20562;-70
2024/01/14 10:21:35;;;;;;;69.13;24.00;;;;;;;0.95;98.11;100843.94;5076128;28;20257;-70
2024/01/14 10:24:04;;;;;;;69.63;23.97;;;;;;;0.87;98.34;100831.22;5076060;28;20186;-72
2024/01/14 10:26:31;;;;;;;83.23;23.67;;;;;;;0.95;98.47;100841.31;5075786;28;20178;-73
2024/01/14 10:29:02;;;;;;;67.73;23.13;;;;;;;0.96;97.98;100827.22;5075359;28;20217;-73
2024/01/14 10:31:31;;;;;;;71.17;23.67;;;;;;;0.88;97.71;100827.66;5076013;28;20178;-75
2024/01/14 10:34:00;;;;;;;72.77;24.73;;;;;;;0.93;97.73;100822.16;5075894;28;20208;-74
2024/01/14 10:36:28;;;;;;;60.63;22.80;;;;;;;0.91;97.89;100814.31;5075212;28;20600;-73
2024/01/14 10:39:02;;;;;;;63.80;22.93;;;;;;;0.93;97.71;100819.50;5075684;28;20622;-72
2024/01/14 10:41:29;;;;;;;51.77;22.47;;;;;;;0.95;97.33;100812.34;5075277;28;20171;-73
2024/01/14 10:43:56;;;;;;;63.57;23.60;;;;;;;0.93;97.27;100813.28;5075091;28;20190;-73
2024/01/14 10:46:23;;;;;;;72.50;24.50;;;;;;;0.95;97.13;100807.09;5075433;28;20185;-73
2024/01/14 10:49:01;;;;;;;54.10;22.87;;;;;;;0.93;97.13;100808.97;5074995;28;20692;-73
2024/01/14 10:51:31;;;;;;;50.53;20.87;;;;;;;0.98;97.17;100799.03;5075318;28;20183;-73
2024/01/14 10:54:12;;;;;;;55.80;20.30;;;;;;;0.96;97.45;100793.00;5075204;28;20261;-73
2024/01/14 10:56:42;;;;;;;55.17;22.03;;;;;;;0.98;97.17;100799.84;5075381;28;20194;-73
2024/01/14 10:59:12;;;;;;;59.87;23.20;;;;;;;1.02;97.22;100790.84;5074836;28;20214;-72
2024/01/14 11:01:49;;;;;;;62.17;22.00;;;;;;;1.02;96.71;100780.31;5075313;28;20178;-73
2024/01/14 11:04:18;;;;;;;48.43;20.90;;;;;;;0.98;96.30;100781.44;5075051;28;20623;-73
2024/01/14 11:06:47;;;;;;;53.77;20.53;;;;;;;0.95;96.63;100781.63;5075000;28;20602;-73